sensor_id;sensor_type;location;lat;lon;timestamp;P1;durP1;ratioP1;P2;durP2;ratioP2
5393;SDS011;2720;52.396;10.064;2023-04-24T00:02:03;2.23;;;1.40;;
5393;SDS011;2720;52.396;10.064;2023-04-24T00:04:31;1.53;;;0.90;;
5393;SDS011;2720;52.396;10.064;2023-04-24T00:06:58;1.67;;;1.30;;
5393;SDS011;2720;52.396;10.064;2023-04-24T00:09:25;1.47;;;0.90;;
5393;SDS011;2720;52.396;10.064;2023-04-24T00:11:52;1.53;;;1.10;;
5393;SDS011;2720;52.396;10.064;2023-04-24T00:14:22;1.80;;;1.20;;
5393;SDS011;2720;52.396;10.064;2023-04-24T00:16:49;3.53;;;1.30;;
5393;SDS011;2720;52.396;10.064;2023-04-24T00:19:16;1.73;;;1.10;;
5393;SDS011;2720;52.396;10.064;2023-04-24T00:21:46;4.87;;;1.40;;
5393;SDS011;2720;52.396;10.064;2023-04-24T00:24:15;3.70;;;1.20;;
5393;SDS011;2720;52.396;10.064;2023-04-24T00:26:41;9.83;;;1.57;;
5393;SDS011;2720;52.396;10.064;2023-04-24T00:29:08;1.50;;;1.20;;
5393;SDS011;2720;52.396;10.064;2023-04-24T00:31:37;2.23;;;1.23;;
5393;SDS011;2720;52.396;10.064;2023-04-24T00:34:04;2.20;;;0.93;;
5393;SDS011;2720;52.396;10.064;2023-04-24T00:36:31;2.63;;;1.40;;
5393;SDS011;2720;52.396;10.064;2023-04-24T00:38:58;3.53;;;1.27;;
5393;SDS011;2720;52.396;10.064;2023-04-24T00:41:25;2.93;;;1.20;;
5393;SDS011;2720;52.396;10.064;2023-04-24T00:43:52;2.10;;;1.10;;
5393;SDS011;2720;52.396;10.064;2023-04-24T00:46:19;3.50;;;1.53;;
5393;SDS011;2720;52.396;10.064;2023-04-24T00:48:48;14.83;;;1.40;;
5393;SDS011;2720;52.396;10.064;2023-04-24T00:51:16;2.77;;;1.20;;
5393;SDS011;2720;52.396;10.064;2023-04-24T00:53:43;2.27;;;1.17;;
5393;SDS011;2720;52.396;10.064;2023-04-24T00:56:10;5.27;;;2.50;;
5393;SDS011;2720;52.396;10.064;2023-04-24T00:58:37;2.27;;;1.37;;
5393;SDS011;2720;52.396;10.064;2023-04-24T01:01:05;6.03;;;1.63;;
5393;SDS011;2720;52.396;10.064;2023-04-24T01:03:32;2.40;;;1.50;;
5393;SDS011;2720;52.396;10.064;2023-04-24T01:06:03;2.50;;;1.73;;
5393;SDS011;2720;52.396;10.064;2023-04-24T01:08:31;4.27;;;2.20;;
5393;SDS011;2720;52.396;10.064;2023-04-24T01:11:00;2.17;;;1.40;;
5393;SDS011;2720;52.396;10.064;2023-04-24T01:13:31;6.40;;;1.73;;
5393;SDS011;2720;52.396;10.064;2023-04-24T01:15:58;2.63;;;1.40;;
5393;SDS011;2720;52.396;10.064;2023-04-24T01:18:25;4.10;;;2.00;;
5393;SDS011;2720;52.396;10.064;2023-04-24T01:20:53;4.00;;;1.83;;
5393;SDS011;2720;52.396;10.064;2023-04-24T01:23:24;3.07;;;1.73;;
5393;SDS011;2720;52.396;10.064;2023-04-24T01:25:51;5.27;;;1.50;;
5393;SDS011;2720;52.396;10.064;2023-04-24T01:28:18;4.43;;;1.90;;
5393;SDS011;2720;52.396;10.064;2023-04-24T01:30:46;2.87;;;1.50;;
5393;SDS011;2720;52.396;10.064;2023-04-24T01:33:13;5.70;;;1.80;;
5393;SDS011;2720;52.396;10.064;2023-04-24T01:35:40;4.80;;;1.77;;
5393;SDS011;2720;52.396;10.064;2023-04-24T01:38:08;4.80;;;1.83;;
5393;SDS011;2720;52.396;10.064;2023-04-24T01:40:37;2.93;;;1.43;;
5393;SDS011;2720;52.396;10.064;2023-04-24T01:43:04;3.07;;;1.67;;
5393;SDS011;2720;52.396;10.064;2023-04-24T01:45:31;4.97;;;1.60;;
5393;SDS011;2720;52.396;10.064;2023-04-24T01:47:58;4.17;;;1.40;;
5393;SDS011;2720;52.396;10.064;2023-04-24T01:50:26;2.47;;;1.13;;
5393;SDS011;2720;52.396;10.064;2023-04-24T01:52:53;6.10;;;1.87;;
5393;SDS011;2720;52.396;10.064;2023-04-24T01:55:20;3.63;;;1.60;;
5393;SDS011;2720;52.396;10.064;2023-04-24T01:57:48;5.60;;;1.60;;
5393;SDS011;2720;52.396;10.064;2023-04-24T02:00:17;3.80;;;1.70;;
5393;SDS011;2720;52.396;10.064;2023-04-24T02:02:44;4.20;;;1.50;;
5393;SDS011;2720;52.396;10.064;2023-04-24T02:05:11;2.70;;;1.37;;
5393;SDS011;2720;52.396;10.064;2023-04-24T02:07:38;2.17;;;1.60;;
5393;SDS011;2720;52.396;10.064;2023-04-24T02:10:06;3.73;;;1.50;;
5393;SDS011;2720;52.396;10.064;2023-04-24T02:12:33;1.60;;;1.20;;
5393;SDS011;2720;52.396;10.064;2023-04-24T02:15:02;3.00;;;1.63;;
5393;SDS011;2720;52.396;10.064;2023-04-24T02:17:30;2.87;;;1.53;;
5393;SDS011;2720;52.396;10.064;2023-04-24T02:19:57;5.33;;;1.43;;
5393;SDS011;2720;52.396;10.064;2023-04-24T02:22:24;2.20;;;1.40;;
5393;SDS011;2720;52.396;10.064;2023-04-24T02:24:51;2.30;;;1.50;;
5393;SDS011;2720;52.396;10.064;2023-04-24T02:27:17;3.83;;;1.37;;
5393;SDS011;2720;52.396;10.064;2023-04-24T02:29:44;4.40;;;1.93;;
5393;SDS011;2720;52.396;10.064;2023-04-24T02:32:13;3.03;;;1.67;;
5393;SDS011;2720;52.396;10.064;2023-04-24T02:34:40;2.67;;;1.30;;
5393;SDS011;2720;52.396;10.064;2023-04-24T02:37:07;2.13;;;1.33;;
5393;SDS011;2720;52.396;10.064;2023-04-24T02:39:34;2.60;;;1.50;;
5393;SDS011;2720;52.396;10.064;2023-04-24T02:42:01;2.13;;;1.40;;
5393;SDS011;2720;52.396;10.064;2023-04-24T02:44:28;7.33;;;1.60;;
5393;SDS011;2720;52.396;10.064;2023-04-24T02:46:55;4.17;;;1.63;;
5393;SDS011;2720;52.396;10.064;2023-04-24T02:49:24;3.57;;;1.40;;
5393;SDS011;2720;52.396;10.064;2023-04-24T02:51:51;2.40;;;1.20;;
5393;SDS011;2720;52.396;10.064;2023-04-24T02:54:18;4.80;;;1.73;;
5393;SDS011;2720;52.396;10.064;2023-04-24T02:56:44;3.47;;;1.83;;
5393;SDS011;2720;52.396;10.064;2023-04-24T02:59:11;8.30;;;1.70;;
5393;SDS011;2720;52.396;10.064;2023-04-24T03:01:38;3.80;;;2.20;;
5393;SDS011;2720;52.396;10.064;2023-04-24T03:04:05;11.07;;;2.50;;
5393;SDS011;2720;52.396;10.064;2023-04-24T03:06:34;3.27;;;1.53;;
5393;SDS011;2720;52.396;10.064;2023-04-24T03:09:01;4.30;;;2.13;;
5393;SDS011;2720;52.396;10.064;2023-04-24T03:11:28;4.93;;;2.60;;
5393;SDS011;2720;52.396;10.064;2023-04-24T03:13:55;4.07;;;2.10;;
5393;SDS011;2720;52.396;10.064;2023-04-24T03:16:22;4.53;;;2.40;;
5393;SDS011;2720;52.396;10.064;2023-04-24T03:18:49;2.90;;;2.00;;
5393;SDS011;2720;52.396;10.064;2023-04-24T03:21:16;4.50;;;1.93;;
5393;SDS011;2720;52.396;10.064;2023-04-24T03:23:44;5.37;;;1.70;;
5393;SDS011;2720;52.396;10.064;2023-04-24T03:26:11;4.93;;;2.37;;
5393;SDS011;2720;52.396;10.064;2023-04-24T03:28:38;4.90;;;2.30;;
5393;SDS011;2720;52.396;10.064;2023-04-24T03:31:05;4.13;;;1.97;;
5393;SDS011;2720;52.396;10.064;2023-04-24T03:33:33;6.33;;;2.67;;
5393;SDS011;2720;52.396;10.064;2023-04-24T03:36:01;2.77;;;1.30;;
5393;SDS011;2720;52.396;10.064;2023-04-24T03:38:28;4.20;;;2.20;;
5393;SDS011;2720;52.396;10.064;2023-04-24T03:40:56;4.93;;;1.93;;
5393;SDS011;2720;52.396;10.064;2023-04-24T03:43:23;3.10;;;1.90;;
5393;SDS011;2720;52.396;10.064;2023-04-24T03:45:50;4.97;;;1.83;;
5393;SDS011;2720;52.396;10.064;2023-04-24T03:48:17;5.30;;;1.40;;
5393;SDS011;2720;52.396;10.064;2023-04-24T03:50:44;3.20;;;1.60;;
5393;SDS011;2720;52.396;10.064;2023-04-24T03:53:11;2.90;;;1.50;;
5393;SDS011;2720;52.396;10.064;2023-04-24T03:55:38;3.60;;;1.90;;
5393;SDS011;2720;52.396;10.064;2023-04-24T03:58:06;2.77;;;1.57;;
5393;SDS011;2720;52.396;10.064;2023-04-24T04:00:33;11.13;;;2.60;;
5393;SDS011;2720;52.396;10.064;2023-04-24T04:03:02;4.87;;;1.50;;
5393;SDS011;2720;52.396;10.064;2023-04-24T04:05:29;3.07;;;1.43;;
5393;SDS011;2720;52.396;10.064;2023-04-24T04:07:56;4.60;;;2.10;;
5393;SDS011;2720;52.396;10.064;2023-04-24T04:10:23;3.10;;;1.80;;
5393;SDS011;2720;52.396;10.064;2023-04-24T04:12:50;7.63;;;1.93;;
5393;SDS011;2720;52.396;10.064;2023-04-24T04:15:18;3.83;;;1.83;;
5393;SDS011;2720;52.396;10.064;2023-04-24T04:17:46;2.77;;;1.80;;
5393;SDS011;2720;52.396;10.064;2023-04-24T04:20:13;5.53;;;2.20;;
5393;SDS011;2720;52.396;10.064;2023-04-24T04:22:40;3.23;;;1.73;;
5393;SDS011;2720;52.396;10.064;2023-04-24T04:25:07;4.23;;;1.97;;
5393;SDS011;2720;52.396;10.064;2023-04-24T04:27:34;5.80;;;2.03;;
5393;SDS011;2720;52.396;10.064;2023-04-24T04:30:02;4.67;;;2.10;;
5393;SDS011;2720;52.396;10.064;2023-04-24T04:32:32;4.20;;;2.27;;
5393;SDS011;2720;52.396;10.064;2023-04-24T04:34:59;5.67;;;1.50;;
5393;SDS011;2720;52.396;10.064;2023-04-24T04:37:28;5.07;;;1.90;;
5393;SDS011;2720;52.396;10.064;2023-04-24T04:39:55;6.30;;;2.50;;
5393;SDS011;2720;52.396;10.064;2023-04-24T04:42:23;4.50;;;2.10;;
5393;SDS011;2720;52.396;10.064;2023-04-24T04:44:50;3.60;;;2.00;;
5393;SDS011;2720;52.396;10.064;2023-04-24T04:47:17;4.20;;;2.00;;
5393;SDS011;2720;52.396;10.064;2023-04-24T04:49:45;4.23;;;2.00;;
5393;SDS011;2720;52.396;10.064;2023-04-24T04:52:13;2.80;;;1.70;;
5393;SDS011;2720;52.396;10.064;2023-04-24T04:54:42;6.00;;;1.80;;
5393;SDS011;2720;52.396;10.064;2023-04-24T04:57:08;4.30;;;1.70;;
5393;SDS011;2720;52.396;10.064;2023-04-24T04:59:37;10.50;;;1.80;;
5393;SDS011;2720;52.396;10.064;2023-04-24T05:02:04;6.73;;;1.77;;
5393;SDS011;2720;52.396;10.064;2023-04-24T05:04:31;5.90;;;1.50;;
5393;SDS011;2720;52.396;10.064;2023-04-24T05:06:59;2.90;;;1.43;;
5393;SDS011;2720;52.396;10.064;2023-04-24T05:09:26;4.03;;;1.60;;
5393;SDS011;2720;52.396;10.064;2023-04-24T05:11:54;2.43;;;1.37;;
5393;SDS011;2720;52.396;10.064;2023-04-24T05:14:21;3.57;;;1.70;;
5393;SDS011;2720;52.396;10.064;2023-04-24T05:16:48;3.30;;;1.77;;
5393;SDS011;2720;52.396;10.064;2023-04-24T05:19:16;2.67;;;1.20;;
5393;SDS011;2720;52.396;10.064;2023-04-24T05:21:42;3.50;;;1.80;;
5393;SDS011;2720;52.396;10.064;2023-04-24T05:24:11;2.83;;;1.80;;
5393;SDS011;2720;52.396;10.064;2023-04-24T05:26:38;5.40;;;1.87;;
5393;SDS011;2720;52.396;10.064;2023-04-24T05:29:05;2.53;;;1.33;;
5393;SDS011;2720;52.396;10.064;2023-04-24T05:31:32;3.53;;;1.33;;
5393;SDS011;2720;52.396;10.064;2023-04-24T05:33:59;2.50;;;1.30;;
5393;SDS011;2720;52.396;10.064;2023-04-24T05:36:26;2.27;;;1.30;;
5393;SDS011;2720;52.396;10.064;2023-04-24T05:38:53;3.43;;;1.00;;
5393;SDS011;2720;52.396;10.064;2023-04-24T05:41:21;5.40;;;1.43;;
5393;SDS011;2720;52.396;10.064;2023-04-24T05:43:48;1.80;;;1.00;;
5393;SDS011;2720;52.396;10.064;2023-04-24T05:46:16;1.10;;;0.80;;
5393;SDS011;2720;52.396;10.064;2023-04-24T05:48:43;1.03;;;0.90;;
5393;SDS011;2720;52.396;10.064;2023-04-24T05:51:10;1.13;;;0.80;;
5393;SDS011;2720;52.396;10.064;2023-04-24T05:53:36;1.37;;;0.80;;
5393;SDS011;2720;52.396;10.064;2023-04-24T05:56:04;2.50;;;1.00;;
5393;SDS011;2720;52.396;10.064;2023-04-24T05:58:33;1.23;;;0.93;;
5393;SDS011;2720;52.396;10.064;2023-04-24T06:00:59;3.80;;;0.70;;
5393;SDS011;2720;52.396;10.064;2023-04-24T06:03:27;2.83;;;1.33;;
5393;SDS011;2720;52.396;10.064;2023-04-24T06:05:54;3.97;;;0.80;;
5393;SDS011;2720;52.396;10.064;2023-04-24T06:08:21;1.70;;;1.20;;
5393;SDS011;2720;52.396;10.064;2023-04-24T06:10:48;1.40;;;1.00;;
5393;SDS011;2720;52.396;10.064;2023-04-24T06:13:15;1.30;;;1.20;;
5393;SDS011;2720;52.396;10.064;2023-04-24T06:15:43;2.30;;;0.90;;
5393;SDS011;2720;52.396;10.064;2023-04-24T06:18:10;6.50;;;1.47;;
5393;SDS011;2720;52.396;10.064;2023-04-24T06:20:37;2.40;;;0.97;;
5393;SDS011;2720;52.396;10.064;2023-04-24T06:23:05;4.90;;;1.37;;
5393;SDS011;2720;52.396;10.064;2023-04-24T06:25:31;5.67;;;1.77;;
5393;SDS011;2720;52.396;10.064;2023-04-24T06:27:59;4.30;;;1.23;;
5393;SDS011;2720;52.396;10.064;2023-04-24T06:30:26;1.90;;;1.10;;
5393;SDS011;2720;52.396;10.064;2023-04-24T06:32:55;2.20;;;1.30;;
5393;SDS011;2720;52.396;10.064;2023-04-24T06:35:21;3.77;;;1.60;;
5393;SDS011;2720;52.396;10.064;2023-04-24T06:37:49;3.30;;;2.17;;
5393;SDS011;2720;52.396;10.064;2023-04-24T06:40:16;2.20;;;1.43;;
5393;SDS011;2720;52.396;10.064;2023-04-24T06:42:43;2.80;;;1.53;;
5393;SDS011;2720;52.396;10.064;2023-04-24T06:45:10;4.03;;;1.60;;
5393;SDS011;2720;52.396;10.064;2023-04-24T06:47:37;2.70;;;1.30;;
5393;SDS011;2720;52.396;10.064;2023-04-24T06:50:06;2.47;;;1.30;;
5393;SDS011;2720;52.396;10.064;2023-04-24T06:52:34;2.50;;;1.70;;
5393;SDS011;2720;52.396;10.064;2023-04-24T06:55:01;4.17;;;1.73;;
5393;SDS011;2720;52.396;10.064;2023-04-24T06:57:28;2.83;;;1.60;;
5393;SDS011;2720;52.396;10.064;2023-04-24T06:59:55;2.50;;;1.70;;
5393;SDS011;2720;52.396;10.064;2023-04-24T07:02:22;2.83;;;1.50;;
5393;SDS011;2720;52.396;10.064;2023-04-24T07:04:49;2.30;;;1.77;;
5393;SDS011;2720;52.396;10.064;2023-04-24T07:07:17;1.93;;;1.07;;
5393;SDS011;2720;52.396;10.064;2023-04-24T07:09:44;6.47;;;4.07;;
5393;SDS011;2720;52.396;10.064;2023-04-24T07:12:11;13.13;;;4.53;;
5393;SDS011;2720;52.396;10.064;2023-04-24T07:14:38;5.77;;;2.57;;
5393;SDS011;2720;52.396;10.064;2023-04-24T07:17:05;4.03;;;1.90;;
5393;SDS011;2720;52.396;10.064;2023-04-24T07:19:33;4.93;;;1.73;;
5393;SDS011;2720;52.396;10.064;2023-04-24T07:22:00;3.70;;;1.80;;
5393;SDS011;2720;52.396;10.064;2023-04-24T07:24:29;3.53;;;1.90;;
5393;SDS011;2720;52.396;10.064;2023-04-24T07:26:57;4.87;;;1.60;;
5393;SDS011;2720;52.396;10.064;2023-04-24T07:29:26;4.60;;;2.13;;
5393;SDS011;2720;52.396;10.064;2023-04-24T07:31:53;8.27;;;3.20;;
5393;SDS011;2720;52.396;10.064;2023-04-24T07:34:21;5.70;;;2.50;;
5393;SDS011;2720;52.396;10.064;2023-04-24T07:36:48;8.73;;;2.53;;
5393;SDS011;2720;52.396;10.064;2023-04-24T07:39:16;7.80;;;2.00;;
5393;SDS011;2720;52.396;10.064;2023-04-24T07:41:44;5.80;;;2.03;;
5393;SDS011;2720;52.396;10.064;2023-04-24T07:44:11;8.73;;;3.33;;
5393;SDS011;2720;52.396;10.064;2023-04-24T07:46:38;5.90;;;2.60;;
5393;SDS011;2720;52.396;10.064;2023-04-24T07:49:06;7.10;;;3.80;;
5393;SDS011;2720;52.396;10.064;2023-04-24T07:51:33;8.73;;;3.80;;
5393;SDS011;2720;52.396;10.064;2023-04-24T07:54:03;9.17;;;4.80;;
5393;SDS011;2720;52.396;10.064;2023-04-24T07:56:31;12.53;;;4.70;;
5393;SDS011;2720;52.396;10.064;2023-04-24T07:59:00;8.83;;;4.90;;
5393;SDS011;2720;52.396;10.064;2023-04-24T08:01:27;8.93;;;5.10;;
5393;SDS011;2720;52.396;10.064;2023-04-24T08:03:54;10.53;;;5.53;;
5393;SDS011;2720;52.396;10.064;2023-04-24T08:06:21;12.53;;;5.20;;
5393;SDS011;2720;52.396;10.064;2023-04-24T08:08:48;9.93;;;4.87;;
5393;SDS011;2720;52.396;10.064;2023-04-24T08:11:16;9.30;;;5.10;;
5393;SDS011;2720;52.396;10.064;2023-04-24T08:13:43;10.50;;;5.30;;
5393;SDS011;2720;52.396;10.064;2023-04-24T08:16:11;12.83;;;5.10;;
5393;SDS011;2720;52.396;10.064;2023-04-24T08:18:38;9.90;;;4.73;;
5393;SDS011;2720;52.396;10.064;2023-04-24T08:21:05;5.43;;;3.83;;
5393;SDS011;2720;52.396;10.064;2023-04-24T08:23:32;7.10;;;4.73;;
5393;SDS011;2720;52.396;10.064;2023-04-24T08:25:59;8.10;;;4.53;;
5393;SDS011;2720;52.396;10.064;2023-04-24T08:28:26;8.67;;;4.83;;
5393;SDS011;2720;52.396;10.064;2023-04-24T08:30:53;7.83;;;4.73;;
5393;SDS011;2720;52.396;10.064;2023-04-24T08:33:22;8.13;;;4.00;;
5393;SDS011;2720;52.396;10.064;2023-04-24T08:35:49;6.93;;;4.07;;
5393;SDS011;2720;52.396;10.064;2023-04-24T08:38:16;8.17;;;4.63;;
5393;SDS011;2720;52.396;10.064;2023-04-24T08:40:43;6.63;;;4.60;;
5393;SDS011;2720;52.396;10.064;2023-04-24T08:43:11;9.47;;;5.50;;
5393;SDS011;2720;52.396;10.064;2023-04-24T08:45:39;10.70;;;4.87;;
5393;SDS011;2720;52.396;10.064;2023-04-24T08:48:06;8.00;;;4.27;;
5393;SDS011;2720;52.396;10.064;2023-04-24T08:50:35;6.70;;;4.10;;
5393;SDS011;2720;52.396;10.064;2023-04-24T08:53:06;6.47;;;4.77;;
5393;SDS011;2720;52.396;10.064;2023-04-24T08:55:34;9.07;;;4.43;;
5393;SDS011;2720;52.396;10.064;2023-04-24T08:58:01;7.27;;;4.70;;
5393;SDS011;2720;52.396;10.064;2023-04-24T09:00:29;7.43;;;5.03;;
5393;SDS011;2720;52.396;10.064;2023-04-24T09:02:56;8.37;;;5.03;;
5393;SDS011;2720;52.396;10.064;2023-04-24T09:05:27;8.17;;;4.67;;
5393;SDS011;2720;52.396;10.064;2023-04-24T09:07:56;10.63;;;4.60;;
5393;SDS011;2720;52.396;10.064;2023-04-24T09:10:25;7.47;;;4.40;;
5393;SDS011;2720;52.396;10.064;2023-04-24T09:12:55;10.17;;;5.30;;
5393;SDS011;2720;52.396;10.064;2023-04-24T09:15:26;8.83;;;5.27;;
5393;SDS011;2720;52.396;10.064;2023-04-24T09:17:53;5.17;;;4.50;;
5393;SDS011;2720;52.396;10.064;2023-04-24T09:20:21;6.30;;;4.27;;
5393;SDS011;2720;52.396;10.064;2023-04-24T09:22:48;7.27;;;4.57;;
5393;SDS011;2720;52.396;10.064;2023-04-24T09:25:21;6.10;;;4.40;;
5393;SDS011;2720;52.396;10.064;2023-04-24T09:27:48;6.50;;;4.73;;
5393;SDS011;2720;52.396;10.064;2023-04-24T09:30:15;10.80;;;4.83;;
5393;SDS011;2720;52.396;10.064;2023-04-24T09:32:48;6.60;;;4.67;;
5393;SDS011;2720;52.396;10.064;2023-04-24T09:35:15;6.47;;;3.80;;
5393;SDS011;2720;52.396;10.064;2023-04-24T09:37:42;6.93;;;5.10;;
5393;SDS011;2720;52.396;10.064;2023-04-24T09:40:11;8.73;;;4.53;;
5393;SDS011;2720;52.396;10.064;2023-04-24T09:42:41;6.90;;;4.27;;
5393;SDS011;2720;52.396;10.064;2023-04-24T09:45:10;5.17;;;3.50;;
5393;SDS011;2720;52.396;10.064;2023-04-24T09:47:37;7.00;;;4.03;;
5393;SDS011;2720;52.396;10.064;2023-04-24T09:50:11;7.30;;;4.47;;
5393;SDS011;2720;52.396;10.064;2023-04-24T09:52:40;7.97;;;3.90;;
5393;SDS011;2720;52.396;10.064;2023-04-24T09:55:16;13.43;;;3.67;;
5393;SDS011;2720;52.396;10.064;2023-04-24T09:57:49;4.03;;;2.37;;
5393;SDS011;2720;52.396;10.064;2023-04-24T10:00:18;4.77;;;2.70;;
5393;SDS011;2720;52.396;10.064;2023-04-24T10:02:51;3.60;;;3.10;;
5393;SDS011;2720;52.396;10.064;2023-04-24T10:05:24;3.77;;;2.40;;
5393;SDS011;2720;52.396;10.064;2023-04-24T10:07:57;4.03;;;2.50;;
5393;SDS011;2720;52.396;10.064;2023-04-24T10:10:26;5.30;;;2.63;;
5393;SDS011;2720;52.396;10.064;2023-04-24T10:12:55;6.97;;;2.97;;
5393;SDS011;2720;52.396;10.064;2023-04-24T10:15:22;10.00;;;3.23;;
5393;SDS011;2720;52.396;10.064;2023-04-24T10:17:50;4.03;;;2.57;;
5393;SDS011;2720;52.396;10.064;2023-04-24T10:20:19;3.20;;;2.30;;
5393;SDS011;2720;52.396;10.064;2023-04-24T10:22:47;3.60;;;2.53;;
5393;SDS011;2720;52.396;10.064;2023-04-24T10:25:18;3.40;;;2.50;;
5393;SDS011;2720;52.396;10.064;2023-04-24T10:27:47;5.00;;;2.87;;
5393;SDS011;2720;52.396;10.064;2023-04-24T10:30:17;2.80;;;2.40;;
5393;SDS011;2720;52.396;10.064;2023-04-24T10:32:45;5.37;;;3.40;;
5393;SDS011;2720;52.396;10.064;2023-04-24T10:35:12;2.87;;;2.13;;
5393;SDS011;2720;52.396;10.064;2023-04-24T10:37:41;4.00;;;2.27;;
5393;SDS011;2720;52.396;10.064;2023-04-24T10:40:11;3.50;;;1.87;;
5393;SDS011;2720;52.396;10.064;2023-04-24T10:42:43;2.90;;;2.17;;
5393;SDS011;2720;52.396;10.064;2023-04-24T10:45:18;2.93;;;2.33;;
5393;SDS011;2720;52.396;10.064;2023-04-24T10:47:53;3.37;;;2.10;;
5393;SDS011;2720;52.396;10.064;2023-04-24T10:50:23;4.00;;;1.93;;
5393;SDS011;2720;52.396;10.064;2023-04-24T10:52:51;3.60;;;2.20;;
5393;SDS011;2720;52.396;10.064;2023-04-24T10:58:08;2.80;;;1.57;;
5393;SDS011;2720;52.396;10.064;2023-04-24T11:00:37;2.37;;;1.60;;
5393;SDS011;2720;52.396;10.064;2023-04-24T11:03:05;3.10;;;2.00;;
5393;SDS011;2720;52.396;10.064;2023-04-24T11:08:29;2.27;;;1.37;;
5393;SDS011;2720;52.396;10.064;2023-04-24T11:10:59;2.20;;;1.80;;
5393;SDS011;2720;52.396;10.064;2023-04-24T11:14:00;2.47;;;1.80;;
5393;SDS011;2720;52.396;10.064;2023-04-24T11:16:30;3.20;;;2.13;;
5393;SDS011;2720;52.396;10.064;2023-04-24T11:19:02;3.70;;;1.80;;
5393;SDS011;2720;52.396;10.064;2023-04-24T11:21:31;3.07;;;1.80;;
5393;SDS011;2720;52.396;10.064;2023-04-24T11:23:59;3.13;;;1.70;;
5393;SDS011;2720;52.396;10.064;2023-04-24T11:26:50;2.23;;;1.77;;
5393;SDS011;2720;52.396;10.064;2023-04-24T11:29:19;4.50;;;2.20;;
5393;SDS011;2720;52.396;10.064;2023-04-24T11:31:48;5.67;;;1.90;;
5393;SDS011;2720;52.396;10.064;2023-04-24T11:34:16;3.40;;;1.97;;
5393;SDS011;2720;52.396;10.064;2023-04-24T11:36:44;2.60;;;1.90;;
5393;SDS011;2720;52.396;10.064;2023-04-24T11:39:12;3.23;;;2.10;;
5393;SDS011;2720;52.396;10.064;2023-04-24T11:41:40;6.33;;;2.13;;
5393;SDS011;2720;52.396;10.064;2023-04-24T11:44:07;5.07;;;2.37;;
5393;SDS011;2720;52.396;10.064;2023-04-24T11:46:36;6.13;;;2.30;;
5393;SDS011;2720;52.396;10.064;2023-04-24T11:49:06;4.40;;;2.17;;
5393;SDS011;2720;52.396;10.064;2023-04-24T11:51:33;3.93;;;1.80;;
5393;SDS011;2720;52.396;10.064;2023-04-24T11:54:00;2.07;;;1.23;;
5393;SDS011;2720;52.396;10.064;2023-04-24T11:56:28;6.87;;;1.80;;
5393;SDS011;2720;52.396;10.064;2023-04-24T11:58:56;1.90;;;1.60;;
5393;SDS011;2720;52.396;10.064;2023-04-24T12:01:23;3.13;;;1.33;;
5393;SDS011;2720;52.396;10.064;2023-04-24T12:03:50;2.40;;;1.50;;
5393;SDS011;2720;52.396;10.064;2023-04-24T12:06:27;1.20;;;1.10;;
5393;SDS011;2720;52.396;10.064;2023-04-24T12:08:53;2.53;;;1.50;;
5393;SDS011;2720;52.396;10.064;2023-04-24T12:11:22;1.97;;;1.13;;
5393;SDS011;2720;52.396;10.064;2023-04-24T12:13:50;1.50;;;1.00;;
5393;SDS011;2720;52.396;10.064;2023-04-24T12:16:17;6.03;;;1.13;;
5393;SDS011;2720;52.396;10.064;2023-04-24T12:18:45;1.60;;;1.10;;
5393;SDS011;2720;52.396;10.064;2023-04-24T12:21:15;1.60;;;1.00;;
5393;SDS011;2720;52.396;10.064;2023-04-24T12:23:44;1.33;;;1.00;;
5393;SDS011;2720;52.396;10.064;2023-04-24T12:26:12;1.43;;;0.90;;
5393;SDS011;2720;52.396;10.064;2023-04-24T12:28:42;1.03;;;0.80;;
5393;SDS011;2720;52.396;10.064;2023-04-24T12:31:09;1.30;;;1.00;;
5393;SDS011;2720;52.396;10.064;2023-04-24T12:33:36;1.40;;;1.13;;
5393;SDS011;2720;52.396;10.064;2023-04-24T12:36:03;1.87;;;1.00;;
5393;SDS011;2720;52.396;10.064;2023-04-24T12:38:31;1.10;;;0.80;;
5393;SDS011;2720;52.396;10.064;2023-04-24T12:41:07;1.33;;;0.87;;
5393;SDS011;2720;52.396;10.064;2023-04-24T12:43:35;1.40;;;0.90;;
5393;SDS011;2720;52.396;10.064;2023-04-24T12:46:02;1.77;;;0.87;;
5393;SDS011;2720;52.396;10.064;2023-04-24T12:48:30;2.63;;;0.60;;
5393;SDS011;2720;52.396;10.064;2023-04-24T12:50:57;6.27;;;0.80;;
5393;SDS011;2720;52.396;10.064;2023-04-24T12:53:26;0.70;;;0.50;;
5393;SDS011;2720;52.396;10.064;2023-04-24T12:55:54;2.13;;;1.13;;
5393;SDS011;2720;52.396;10.064;2023-04-24T12:58:23;1.00;;;0.57;;
5393;SDS011;2720;52.396;10.064;2023-04-24T13:00:50;2.27;;;0.97;;
5393;SDS011;2720;52.396;10.064;2023-04-24T13:03:17;1.27;;;0.83;;
5393;SDS011;2720;52.396;10.064;2023-04-24T13:05:45;2.50;;;0.93;;
5393;SDS011;2720;52.396;10.064;2023-04-24T13:08:12;2.50;;;0.97;;
5393;SDS011;2720;52.396;10.064;2023-04-24T13:10:39;1.70;;;1.07;;
5393;SDS011;2720;52.396;10.064;2023-04-24T13:13:06;6.90;;;1.17;;
5393;SDS011;2720;52.396;10.064;2023-04-24T13:15:35;2.00;;;1.00;;
5393;SDS011;2720;52.396;10.064;2023-04-24T13:18:02;1.90;;;1.20;;
5393;SDS011;2720;52.396;10.064;2023-04-24T13:20:29;0.80;;;0.60;;
5393;SDS011;2720;52.396;10.064;2023-04-24T13:22:56;1.43;;;0.90;;
5393;SDS011;2720;52.396;10.064;2023-04-24T13:25:23;1.40;;;0.90;;
5393;SDS011;2720;52.396;10.064;2023-04-24T13:27:50;1.43;;;1.10;;
5393;SDS011;2720;52.396;10.064;2023-04-24T13:30:17;4.17;;;1.00;;
5393;SDS011;2720;52.396;10.064;2023-04-24T13:32:45;4.60;;;1.07;;
5393;SDS011;2720;52.396;10.064;2023-04-24T13:35:12;1.63;;;0.90;;
5393;SDS011;2720;52.396;10.064;2023-04-24T13:37:39;2.10;;;1.43;;
5393;SDS011;2720;52.396;10.064;2023-04-24T13:40:06;3.73;;;1.20;;
5393;SDS011;2720;52.396;10.064;2023-04-24T13:42:34;8.83;;;1.40;;
5393;SDS011;2720;52.396;10.064;2023-04-24T13:45:01;2.03;;;1.33;;
5393;SDS011;2720;52.396;10.064;2023-04-24T13:47:29;2.63;;;0.87;;
5393;SDS011;2720;52.396;10.064;2023-04-24T13:49:58;2.57;;;0.97;;
5393;SDS011;2720;52.396;10.064;2023-04-24T13:52:24;2.00;;;1.10;;
5393;SDS011;2720;52.396;10.064;2023-04-24T13:54:52;1.40;;;0.60;;
5393;SDS011;2720;52.396;10.064;2023-04-24T13:57:19;1.60;;;0.70;;
5393;SDS011;2720;52.396;10.064;2023-04-24T13:59:46;1.80;;;0.70;;
5393;SDS011;2720;52.396;10.064;2023-04-24T14:02:13;1.80;;;0.60;;
5393;SDS011;2720;52.396;10.064;2023-04-24T14:04:40;5.70;;;0.80;;
5393;SDS011;2720;52.396;10.064;2023-04-24T14:07:09;5.17;;;0.83;;
5393;SDS011;2720;52.396;10.064;2023-04-24T14:09:36;2.93;;;0.83;;
5393;SDS011;2720;52.396;10.064;2023-04-24T14:12:03;2.20;;;0.70;;
5393;SDS011;2720;52.396;10.064;2023-04-24T14:14:32;2.30;;;0.70;;
5393;SDS011;2720;52.396;10.064;2023-04-24T14:16:59;3.00;;;0.80;;
5393;SDS011;2720;52.396;10.064;2023-04-24T14:19:26;2.70;;;0.67;;
5393;SDS011;2720;52.396;10.064;2023-04-24T14:21:53;3.60;;;0.50;;
5393;SDS011;2720;52.396;10.064;2023-04-24T14:24:23;3.20;;;0.40;;
5393;SDS011;2720;52.396;10.064;2023-04-24T14:26:50;4.00;;;0.40;;
5393;SDS011;2720;52.396;10.064;2023-04-24T14:29:17;2.70;;;0.50;;
5393;SDS011;2720;52.396;10.064;2023-04-24T14:31:44;2.53;;;0.40;;
5393;SDS011;2720;52.396;10.064;2023-04-24T14:34:12;2.90;;;0.67;;
5393;SDS011;2720;52.396;10.064;2023-04-24T14:36:40;2.70;;;0.60;;
5393;SDS011;2720;52.396;10.064;2023-04-24T14:39:07;2.80;;;0.60;;
5393;SDS011;2720;52.396;10.064;2023-04-24T14:41:37;2.90;;;0.90;;
5393;SDS011;2720;52.396;10.064;2023-04-24T14:44:04;2.60;;;0.60;;
5393;SDS011;2720;52.396;10.064;2023-04-24T14:46:31;12.83;;;1.03;;
5393;SDS011;2720;52.396;10.064;2023-04-24T14:48:58;4.97;;;1.13;;
5393;SDS011;2720;52.396;10.064;2023-04-24T14:51:25;3.00;;;1.17;;
5393;SDS011;2720;52.396;10.064;2023-04-24T14:53:52;2.20;;;1.00;;
5393;SDS011;2720;52.396;10.064;2023-04-24T14:56:19;2.43;;;1.07;;
5393;SDS011;2720;52.396;10.064;2023-04-24T14:58:47;2.87;;;1.37;;
5393;SDS011;2720;52.396;10.064;2023-04-24T15:01:14;2.50;;;1.30;;
5393;SDS011;2720;52.396;10.064;2023-04-24T15:03:42;2.10;;;1.23;;
5393;SDS011;2720;52.396;10.064;2023-04-24T15:06:10;1.73;;;1.20;;
5393;SDS011;2720;52.396;10.064;2023-04-24T15:08:37;2.37;;;1.30;;
5393;SDS011;2720;52.396;10.064;2023-04-24T15:11:04;2.93;;;1.90;;